Data for 08/12/2013

Time Sea-Level Adjusted Pressure Absolute Pressure Temperature Relative Humidity Dew Point   
(mb) (inHg) (mb) (inHg) (C) (F) (%) (C) (F)
00:05 1022 30.18 851 25.13 15.1 59.2 47 4 39.2
00:10 1022 30.18 851 25.13 15.1 59.2 46 3.7 38.7
00:15 1022 30.18 851 25.13 15.3 59.6 46 3.9 39
00:20 1022 30.18 851 25.13 15.1 59.3 46 3.7 38.7
00:25 1022 30.18 851 25.13 15.1 59.2 47 3.9 39
00:30 1022 30.18 851 25.13 15.1 59.2 46 3.7 38.7
00:35 1022 30.18 851 25.13 15.3 59.5 45 3.5 38.3
00:40 1022 30.18 851 25.13 15 59 49 4.4 40
00:45 1022 30.18 851 25.13 14.4 57.8 50 4.3 39.7
00:50 1022 30.18 851 25.13 14.3 57.7 50 4 39.1
00:55 1022 30.18 851 25.13 14.4 58 49 4 39.1
01:00 1022 30.18 851 25.13 14.4 57.9 50 4.1 39.3
01:05 1022 30.18 851 25.13 14.3 57.7 50 4 39.3
01:10 1022 30.18 851 25.13 14.2 57.5 50 3.9 39.1
01:15 1022 30.18 851 25.13 14.2 57.5 50 4 39.2
01:20 1022 30.18 851 25.13 14.1 57.4 50 3.9 39
01:25 1022 30.18 851 25.13 14.2 57.5 49 3.8 38.8
01:30 1021 30.15 851 25.13 14.4 57.9 49 3.9 39
01:35 1021 30.15 851 25.13 14.3 57.7 50 4 39.3
01:40 1021 30.15 851 25.13 14.1 57.4 51 4.3 39.8
01:45 1021 30.15 851 25.13 13.8 56.8 52 4.2 39.5
01:50 1021 30.15 851 25.13 13.8 56.9 51 3.9 39.1
01:55 1021 30.15 851 25.13 13.8 56.8 53 4.5 40.1
02:00 1021 30.15 851 25.13 13.5 56.4 53 4.2 39.5
02:05 1021 30.15 851 25.13 14 57.1 52 4.3 39.8
02:10 1021 30.15 851 25.13 13.9 57 52 4.2 39.6
02:15 1021 30.15 851 25.13 14.2 57.5 50 4.1 39.4
02:20 1021 30.15 850 25.1 14.2 57.6 51 4.4 39.9
02:25 1021 30.15 850 25.1 14.3 57.7 51 4.5 40
02:30 1021 30.15 851 25.13 14.5 58 51 4.7 40.4
02:35 1021 30.15 851 25.13 14.4 57.8 50 4.2 39.6
02:40 1021 30.15 851 25.13 14.7 58.4 50 4.5 40.1
02:45 1021 30.15 851 25.13 14.2 57.6 54 5.2 41.3
02:50 1021 30.15 851 25.13 13.8 56.9 52 4.3 39.7
02:55 1021 30.15 851 25.13 14 57.2 53 4.5 40.2
03:00 1021 30.15 851 25.13 14.1 57.4 52 4.6 40.3
03:05 1022 30.18 851 25.13 14.1 57.4 52 4.6 40.3
03:10 1022 30.18 851 25.13 13.9 56.9 55 5 41
03:15 1021 30.15 851 25.13 13.8 56.8 52 4.3 39.7
03:20 1022 30.18 851 25.13 13.9 57 53 4.6 40.2
03:25 1022 30.18 851 25.13 13.5 56.2 54 4.4 39.9
03:30 1022 30.18 851 25.13 13.2 55.8 55 4.5 40.1
03:35 1021 30.15 851 25.13 12.8 55 57 4.5 40.2
03:40 1021 30.15 851 25.13 12.4 54.3 59 4.6 40.3
03:45 1021 30.15 851 25.13 12.1 53.7 60 4.6 40.3
03:50 1022 30.18 851 25.13 11.8 53.2 60 4.4 39.9
03:55 1022 30.18 851 25.13 11.7 53 61 4.4 40
04:00 1022 30.18 851 25.13 11.6 52.9 60 4.2 39.6
04:05 1021 30.15 851 25.13 11.5 52.8 61 4.3 39.8
04:10 1022 30.18 851 25.13 11.4 52.6 62 4.4 40
04:15 1022 30.18 851 25.13 11.2 52.2 62 4.3 39.7
04:20 1022 30.18 851 25.13 11.3 52.3 62 4.2 39.6
04:25 1022 30.18 851 25.13 11.3 52.3 62 4.3 39.7
04:30 1022 30.18 851 25.13 11.2 52.1 63 4.5 40.1
04:35 1022 30.18 851 25.13 10.9 51.6 64 4.4 40
04:40 1022 30.18 851 25.13 10.5 50.9 65 4.3 39.8
04:45 1022 30.18 851 25.13 10.5 50.8 65 4.3 39.7
04:50 1022 30.18 851 25.13 10.5 50.8 64 3.9 39.1
04:55 1022 30.18 851 25.13 11.2 52.1 57 3.1 37.6
05:00 1022 30.18 851 25.13 12.3 54.2 57 4.1 39.3
05:05 1022 30.18 851 25.13 12 53.5 58 3.9 39
05:10 1022 30.18 851 25.13 12.2 54 54 3.4 38.1
05:15 1022 30.18 851 25.13 12.9 55.3 53 3.8 38.8
05:20 1022 30.18 851 25.13 12.9 55.1 55 4 39.2
05:25 1022 30.18 851 25.13 12.8 55.1 54 3.9 39
05:30 1022 30.18 851 25.13 12.7 54.9 54 3.8 38.8
05:35 1022 30.18 851 25.13 12.7 54.9 55 4 39.2
05:40 1022 30.18 851 25.13 12.6 54.7 54 3.6 38.4
05:45 1022 30.18 851 25.13 12.9 55.2 53 3.7 38.7
05:50 1022 30.18 851 25.13 12.8 55 54 3.8 38.9
05:55 1022 30.18 851 25.13 12.6 54.6 56 4 39.1
06:00 1022 30.18 851 25.13 12.2 54 57 3.9 39
06:05 1022 30.18 851 25.13 12.1 53.8 57 3.8 38.9
06:10 1022 30.18 851 25.13 12.2 54 56 3.8 38.8
06:15 1022 30.18 851 25.13 12.5 54.4 55 3.8 38.8
06:20 1022 30.18 851 25.13 12.6 54.6 57 4.2 39.6
06:25 1022 30.18 851 25.13 12.4 54.2 55 3.7 38.6
06:30 1022 30.18 852 25.16 12.8 55 54 3.8 38.8
06:35 1022 30.18 852 25.16 13 55.3 53 3.7 38.7
06:40 1022 30.18 852 25.16 13.4 56.2 52 4 39.1
06:45 1023 30.21 852 25.16 13.7 56.6 52 4 39.3
06:50 1023 30.21 852 25.16 13.9 57 52 4.3 39.7
06:55 1023 30.21 852 25.16 14.1 57.3 53 4.6 40.3
07:00 1023 30.21 852 25.16 14.2 57.6 55 5.3 41.6
07:05 1023 30.21 852 25.16 14 57.1 56 5.4 41.7
07:10 1023 30.21 852 25.16 13.8 56.8 57 5.4 41.7
07:15 1023 30.21 852 25.16 14.1 57.4 56 5.5 41.9
07:20 1023 30.21 852 25.16 14.4 57.9 56 5.8 42.4
07:25 1023 30.21 852 25.16 15 59 52 5.4 41.8
07:30 1023 30.21 852 25.16 16 60.9 47 4.8 40.7
07:35 1023 30.21 852 25.16 16.8 62.2 46 5.2 41.3
07:40 1023 30.21 852 25.16 17 62.6 44 4.9 40.8
07:45 1023 30.21 852 25.16 17.2 62.9 44 4.9 40.9
07:50 1023 30.21 852 25.16 17.1 62.7 46 5.4 41.8
07:55 1023 30.21 852 25.16 17 62.6 46 5.5 41.9
08:00 1022 30.18 852 25.16 16.6 61.9 46 5.1 41.2
08:05 1022 30.18 852 25.16 16.4 61.6 46 5 41
08:10 1022 30.18 852 25.16 16.9 62.3 44 4.8 40.6
08:15 1022 30.18 852 25.16 17.8 64.1 42 4.9 40.8
08:20 1022 30.18 851 25.13 17.8 64.1 43 5.1 41.2
08:25 1022 30.18 852 25.16 18.3 65 42 5.3 41.5
08:30 1022 30.18 852 25.16 19 66.3 40 5.3 41.6
08:35 1022 30.18 851 25.13 19.1 66.4 40 5.3 41.5
08:40 1022 30.18 851 25.13 19.5 67.1 37 4.6 40.3
08:45 1022 30.18 851 25.13 19.7 67.4 35 4.1 39.3
08:50 1022 30.18 851 25.13 19.3 66.7 38 4.6 40.3
08:55 1022 30.18 851 25.13 19.6 67.3 37 4.7 40.4
09:00 1022 30.18 851 25.13 20.5 68.9 33 4 39.2
09:05 1022 30.18 851 25.13 21.2 70.1 33 4.4 39.9
09:10 1022 30.18 851 25.13 21.7 71.1 31 4.2 39.6
09:15 1022 30.18 851 25.13 22 71.7 30 4.1 39.3
09:20 1022 30.18 851 25.13 22.3 72.2 30 4.1 39.4
09:25 1022 30.18 851 25.13 22.6 72.7 30 4.4 40
09:30 1022 30.18 851 25.13 23 73.3 28 3.7 38.7
09:35 1022 30.18 851 25.13 23.1 73.7 28 3.7 38.7
09:40 1022 30.18 851 25.13 23.4 74.1 26 3.3 37.9
09:45 1022 30.18 851 25.13 23.3 74 27 3.7 38.6
09:50 1022 30.18 851 25.13 24.3 75.8 25 3.4 38.1
09:55 1022 30.18 851 25.13 25.7 78.2 23 3.5 38.3
10:00 1022 30.18 851 25.13 25.9 78.7 22 3 37.4
10:05 1022 30.18 851 25.13 26.1 79 24 3.9 39.1
10:10 1022 30.18 851 25.13 26.8 80.3 22 3.9 39
10:15 1022 30.18 851 25.13 26.5 79.6 26 5.7 42.3
10:20 1022 30.18 851 25.13 25.6 78 28 6.2 43.1
10:25 1022 30.18 851 25.13 24.7 76.5 31 6.8 44.2
10:30 1022 30.18 851 25.13 23.5 74.3 31 5.7 42.3
10:35 1022 30.18 851 25.13 23.5 74.2 31 5.7 42.2
10:40 1022 30.18 851 25.13 23.3 74 30 4.9 40.9
10:45 1022 30.18 851 25.13 23.5 74.4 30 5 40.9
10:50 1022 30.18 851 25.13 24 75.2 30 5.7 42.2
10:55 1022 30.18 851 25.13 24 75.2 31 6 42.8
11:00 1022 30.18 851 25.13 24.3 75.7 30 6 42.8
11:05 1022 30.18 851 25.13 24.3 75.7 31 6.5 43.7
11:10 1022 30.18 851 25.13 24.6 76.2 30 5.9 42.7
11:15 1022 30.18 851 25.13 24.7 76.4 30 6 42.8
11:20 1022 30.18 851 25.13 24.8 76.6 28 5.2 41.4
11:25 1022 30.18 851 25.13 24.6 76.2 30 6.1 42.9
11:30 1022 30.18 851 25.13 25.1 77.2 28 5.5 41.9
11:35 1022 30.18 851 25.13 24.7 76.5 29 5.9 42.6
11:40 1022 30.18 851 25.13 24.6 76.4 29 5.8 42.5
11:45 1022 30.18 851 25.13 25.2 77.3 28 5.4 41.7
11:50 1022 30.18 851 25.13 25.6 78.1 27 5.6 42
11:55 1022 30.18 851 25.13 26.1 78.9 25 5 41
12:00 1022 30.18 851 25.13 26.2 79.2 25 5.1 41.1
12:05 1022 30.18 851 25.13 26.2 79.1 25 5.1 41.1
12:10 1022 30.18 851 25.13 25.8 78.5 27 5.7 42.2
12:15 1022 30.18 851 25.13 25.6 78.2 27 5.4 41.7
12:20 1022 30.18 851 25.13 25.5 77.9 25 4.4 39.9
12:25 1022 30.18 851 25.13 25.4 77.8 26 4.5 40.2
12:30 1022 30.18 851 25.13 25.1 77.1 26 4.5 40.1
12:35 1022 30.18 851 25.13 24.4 75.9 30 6 42.8
12:40 1022 30.18 851 25.13 23.7 74.7 31 5.8 42.5
12:45 1021 30.15 851 25.13 23.6 74.5 30 5.4 41.6
12:50 1021 30.15 851 25.13 23.6 74.5 30 5.3 41.5
12:55 1021 30.15 851 25.13 23.5 74.4 31 5.7 42.2
13:00 1021 30.15 851 25.13 24.2 75.6 32 6.7 44.1
13:05 1021 30.15 851 25.13 24.4 76 32 7.1 44.8
13:10 1021 30.15 851 25.13 24.8 76.6 31 6.7 44
13:15 1021 30.15 851 25.13 24.5 76.1 31 6.7 44
13:20 1021 30.15 851 25.13 24.1 75.4 32 6.6 43.9
13:25 1021 30.15 851 25.13 24.2 75.5 32 6.8 44.3
13:30 1021 30.15 851 25.13 24.7 76.4 32 7 44.7
13:35 1021 30.15 851 25.13 25 77 30 6.6 43.9
13:40 1021 30.15 851 25.13 24.9 76.7 32 7.1 44.7
13:45 1021 30.15 851 25.13 25.2 77.3 29 5.9 42.7
13:50 1021 30.15 850 25.1 25.4 77.7 30 6.7 44
13:55 1021 30.15 850 25.1 25.5 77.8 21 1.6 34.8
14:00 1021 30.15 850 25.1 25.4 77.6 19 0.2 32.4
14:05 1021 30.15 850 25.1 25.2 77.4 18 -0.3 31.5
14:10 1021 30.15 850 25.1 25.6 78 19 0.2 32.4
14:15 1021 30.15 850 25.1 26 78.8 18 0.4 32.7
14:20 1021 30.15 850 25.1 26.1 78.9 18 0.4 32.7
14:25 1021 30.15 850 25.1 25.8 78.5 19 1 33.8
14:30 1021 30.15 850 25.1 26.2 79.2 19 0.9 33.7
14:35 1021 30.15 850 25.1 26.8 80.2 18 0.8 33.4
14:40 1021 30.15 850 25.1 26.6 79.9 18 0.8 33.4
14:45 1021 30.15 850 25.1 26 78.7 20 1.8 35.2
14:50 1021 30.15 850 25.1 26.2 79.1 19 1.2 34.1
14:55 1021 30.15 850 25.1 26.2 79.2 22 3.2 37.7
15:00 1021 30.15 850 25.1 26.4 79.5 21 2.5 36.5
15:05 1021 30.15 850 25.1 26.3 79.3 19 1.4 34.5
15:10 1021 30.15 850 25.1 25.9 78.7 21 2 35.6
15:15 1021 30.15 850 25.1 26 78.8 20 1.5 34.7
15:20 1021 30.15 850 25.1 26 78.8 20 1.4 34.6
15:25 1021 30.15 850 25.1 26.3 79.4 18 0.4 32.8
15:30 1021 30.15 850 25.1 26.8 80.2 18 0.7 33.2
15:35 1021 30.15 851 25.13 26.7 80 19 1.4 34.5
15:40 1021 30.15 851 25.13 26.2 79.1 20 1.8 35.2
15:45 1022 30.18 851 25.13 25.8 78.5 19 1 33.7
15:50 1022 30.18 851 25.13 25.4 77.8 20 1.4 34.5
15:55 1022 30.18 851 25.13 25.2 77.4 21 1.6 35
16:00 1022 30.18 851 25.13 25.1 77.2 20 1.1 33.9
16:05 1021 30.15 851 25.13 25.1 77.1 21 1.3 34.4
16:10 1021 30.15 851 25.13 25 76.9 21 1.4 34.5
16:15 1021 30.15 851 25.13 24.8 76.7 21 1.4 34.5
16:20 1021 30.15 851 25.13 24.8 76.6 22 1.6 34.9
16:25 1021 30.15 850 25.1 24.7 76.4 23 2.2 35.9
16:30 1021 30.15 850 25.1 24.8 76.7 22 2 35.5
16:35 1021 30.15 850 25.1 25 77 21 1.2 34.2
16:40 1021 30.15 850 25.1 25.2 77.4 20 0.8 33.4
16:45 1021 30.15 850 25.1 25.4 77.8 22 2.2 36
16:50 1021 30.15 850 25.1 25.5 77.8 21 1.9 35.4
16:55 1021 30.15 850 25.1 25.2 77.3 23 2.8 37
17:00 1021 30.15 850 25.1 25 77 21 1.5 34.8
17:05 1021 30.15 850 25.1 25.1 77.2 23 2.6 36.6
17:10 1021 30.15 850 25.1 25.2 77.3 22 2.5 36.5
17:15 1021 30.15 850 25.1 25.2 77.4 23 2.8 37.1
17:20 1021 30.15 850 25.1 25.3 77.5 23 2.8 37
17:25 1021 30.15 850 25.1 25.4 77.7 22 2.2 36
17:30 1021 30.15 850 25.1 25.7 78.2 27 5.4 41.8
17:35 1021 30.15 850 25.1 25.7 78.3 20 1.5 34.7
17:40 1021 30.15 850 25.1 25.9 78.5 21 2.1 35.8
17:45 1021 30.15 850 25.1 25.9 78.5 23 3.5 38.4
17:50 1021 30.15 850 25.1 25.7 78.2 25 4.5 40.2
17:55 1021 30.15 850 25.1 25.5 77.8 25 4.1 39.3
18:00 1021 30.15 850 25.1 25.3 77.5 25 4.3 39.8
18:05 1021 30.15 850 25.1 25.1 77.1 24 3.5 38.3
18:10 1021 30.15 850 25.1 24.7 76.5 25 3.6 38.4
18:15 1021 30.15 850 25.1 24.5 76 25 3.1 37.6
18:20 1021 30.15 850 25.1 24.2 75.5 24 2.6 36.7
18:25 1021 30.15 850 25.1 23.9 75.1 25 2.9 37.2
18:30 1021 30.15 850 25.1 23.6 74.5 26 3.5 38.2
18:35 1021 30.15 850 25.1 23.4 74.2 27 3.6 38.6
18:40 1021 30.15 850 25.1 23.2 73.8 28 4 39.1
18:45 1021 30.15 850 25.1 23.1 73.5 28 4 39.2
18:50 1021 30.15 850 25.1 23 73.3 29 4.3 39.8
18:55 1021 30.15 850 25.1 22.7 72.9 30 4.7 40.4
19:00 1021 30.15 851 25.13 22.5 72.5 30 4.3 39.7
19:05 1021 30.15 851 25.13 22.3 72.2 32 5 41
19:10 1021 30.15 851 25.13 21.7 71.1 36 6 42.8
19:15 1021 30.15 851 25.13 21.2 70.1 34 4.8 40.7
19:20 1022 30.18 851 25.13 21 69.8 35 4.9 40.9
19:25 1022 30.18 851 25.13 20.3 68.6 35 4.6 40.3
19:30 1022 30.18 851 25.13 20.3 68.6 33 3.7 38.6
19:35 1022 30.18 851 25.13 21 69.8 32 3.8 38.9
19:40 1022 30.18 851 25.13 21.1 70 29 2.8 37
19:45 1022 30.18 851 25.13 21.4 70.4 31 3.7 38.6
19:50 1022 30.18 851 25.13 21.1 69.9 31 3.3 38
19:55 1022 30.18 851 25.13 21.1 70 31 3.5 38.3
20:00 1022 30.18 851 25.13 21.2 70.1 32 4.2 39.5
20:05 1022 30.18 851 25.13 21 69.9 31 3.5 38.4
20:10 1022 30.18 851 25.13 20.8 69.5 34 4.4 40
20:15 1022 30.18 851 25.13 20.6 69.2 32 3.5 38.3
20:20 1022 30.18 851 25.13 20.7 69.2 32 3.5 38.4
20:25 1022 30.18 851 25.13 20.8 69.4 31 3.1 37.7
20:30 1022 30.18 851 25.13 20.9 69.5 31 3.3 37.9
20:35 1022 30.18 851 25.13 20.9 69.6 31 3.4 38
20:40 1022 30.18 852 25.16 20.9 69.6 31 3.3 38
20:45 1022 30.18 852 25.16 21 69.8 31 3.3 37.9
20:50 1022 30.18 852 25.16 21.2 70.2 30 3 37.5
20:55 1022 30.18 852 25.16 21.2 70.1 30 3 37.5
21:00 1022 30.18 852 25.16 21.2 70.2 30 3.3 38
21:05 1023 30.21 852 25.16 21.1 69.9 31 3.3 37.9
21:10 1023 30.21 852 25.16 21 69.7 31 3.4 38.1
21:15 1023 30.21 852 25.16 20.3 68.5 34 3.9 39
21:20 1023 30.21 852 25.16 19.8 67.6 34 3.5 38.3
21:25 1023 30.21 852 25.16 19.6 67.3 36 4.4 40
21:30 1023 30.21 853 25.19 19 66.1 39 4.8 40.7
21:35 1023 30.21 852 25.16 18.7 65.6 37 3.7 38.7
21:40 1023 30.21 852 25.16 18.9 66.1 36 3.5 38.4
21:45 1023 30.21 852 25.16 19 66.1 35 3.3 38
21:50 1023 30.21 853 25.19 18.9 66 37 3.9 39
21:55 1024 30.24 853 25.19 18.4 65.1 36 3.4 38.1
22:00 1024 30.24 853 25.19 18.6 65.4 34 2.7 36.8
22:05 1024 30.24 853 25.19 19.1 66.3 33 2.7 36.8
22:10 1024 30.24 853 25.19 19 66.2 34 2.8 37
22:15 1024 30.24 853 25.19 18.9 66.1 33 2.4 36.3
22:20 1024 30.24 853 25.19 18.9 66 39 4.7 40.5
22:25 1024 30.24 853 25.19 18.6 65.4 38 4.3 39.7
22:30 1024 30.24 853 25.19 18.7 65.7 34 2.6 36.6
22:35 1024 30.24 853 25.19 19 66.2 33 2.7 36.8
22:40 1024 30.24 853 25.19 18.6 65.4 35 2.9 37.3
22:45 1024 30.24 853 25.19 18.6 65.5 37 3.7 38.7
22:50 1024 30.24 853 25.19 18.3 64.9 37 3.6 38.4
22:55 1023 30.21 853 25.19 18.1 64.5 38 3.8 38.9
23:00 1023 30.21 853 25.19 17.9 64.2 40 4.2 39.6
23:05 1023 30.21 853 25.19 17.3 63.1 43 4.5 40.2
23:10 1023 30.21 852 25.16 16.9 62.5 41 3.7 38.6
23:15 1023 30.21 852 25.16 17.3 63.2 40 3.7 38.7
23:20 1023 30.21 852 25.16 16.9 62.3 43 4.4 39.9
23:25 1023 30.21 852 25.16 16.3 61.4 44 4.1 39.4
23:30 1023 30.21 852 25.16 16.2 61.2 43 3.9 39
23:35 1023 30.21 852 25.16 16.2 61.1 44 4.1 39.3
23:40 1023 30.21 852 25.16 16 60.9 45 4.1 39.4
23:45 1022 30.18 852 25.16 16.1 60.9 45 4.1 39.4
23:50 1022 30.18 852 25.16 16.1 61 44 4.1 39.4
23:55 1022 30.18 851 25.13 16.5 61.6 43 4.1 39.3
24:00 1022 30.18 851 25.13 16.8 62.2 43 4.2 39.6